Time;durP1;ratioP1;P1;durP2;ratioP2;P2;SDS_P1;SDS_P2;PMS_P1;PMS_P2;Temp;Humidity;BMP_temperature;BMP_pressure;BME280_temperature;BME280_humidity;BME280_pressure;Samples;Min_cycle;Max_cycle;Signal;HPM_P1;HPM_P2
2023/04/21 00:00:25;;;;;;;14.63;9.63;;;3.80;81.90;;;;;;5015694;28;20034;-70
2023/04/21 00:02:51;;;;;;;11.85;8.85;;;3.70;80.60;;;;;;5015984;28;20025;-70
2023/04/21 00:05:16;;;;;;;15.85;10.07;;;3.70;79.40;;;;;;5025744;28;20026;-70
2023/04/21 00:07:42;;;;;;;11.55;8.32;;;3.60;78.70;;;;;;5024069;28;20038;-70
2023/04/21 00:10:09;;;;;;;11.93;7.68;;;3.60;77.40;;;;;;5015966;28;20026;-70
2023/04/21 00:12:35;;;;;;;12.40;8.82;;;3.50;76.70;;;;;;5005617;28;20462;-70
2023/04/21 00:15:01;;;;;;;14.20;10.35;;;3.50;75.90;;;;;;5034073;28;20037;-70
2023/04/21 00:17:27;;;;;;;12.90;8.85;;;3.40;76.30;;;;;;5033892;28;20029;-70
2023/04/21 00:19:53;;;;;;;12.52;8.77;;;3.40;75.90;;;;;;5016542;28;20296;-70
2023/04/21 00:22:20;;;;;;;14.63;10.00;;;3.40;75.40;;;;;;5029783;28;20330;-70
2023/04/21 00:24:46;;;;;;;16.65;11.32;;;3.20;75.80;;;;;;5031094;28;20117;-70
2023/04/21 00:27:12;;;;;;;15.38;10.55;;;3.10;74.40;;;;;;5019846;28;20092;-70
2023/04/21 00:29:39;;;;;;;13.18;9.20;;;3.10;74.10;;;;;;5014940;28;20034;-71
2023/04/21 00:32:07;;;;;;;13.35;9.43;;;3.00;74.10;;;;;;5021149;28;20060;-71
2023/04/21 00:34:33;;;;;;;16.05;10.23;;;2.90;74.80;;;;;;5034798;28;20033;-70
2023/04/21 00:36:59;;;;;;;14.45;9.30;;;2.80;74.60;;;;;;5026978;28;20431;-70
2023/04/21 00:39:24;;;;;;;13.10;9.50;;;2.80;71.70;;;;;;5005661;28;20033;-70
2023/04/21 00:41:50;;;;;;;15.57;10.98;;;2.80;71.30;;;;;;5016081;28;20025;-70
2023/04/21 00:44:16;;;;;;;14.27;10.32;;;2.80;70.50;;;;;;5016379;28;20022;-70
2023/04/21 00:46:42;;;;;;;15.40;10.45;;;2.80;70.50;;;;;;5013712;28;20104;-70
2023/04/21 00:49:08;;;;;;;14.65;9.65;;;2.80;71.60;;;;;;5016205;28;20029;-70
2023/04/21 00:51:35;;;;;;;14.98;9.23;;;2.80;70.70;;;;;;5014840;28;20025;-70
2023/04/21 00:54:05;;;;;;;15.20;9.57;;;2.60;72.10;;;;;;5009418;28;20066;-70
2023/04/21 00:56:32;;;;;;;13.50;9.10;;;2.50;72.30;;;;;;5006140;28;20364;-71
2023/04/21 00:58:59;;;;;;;15.57;9.35;;;2.40;71.70;;;;;;5013064;28;20045;-70
2023/04/21 01:01:28;;;;;;;17.27;11.40;;;2.40;69.00;;;;;;5014705;28;20026;-70
2023/04/21 01:03:59;;;;;;;17.88;10.57;;;2.40;70.20;;;;;;5014272;28;20030;-69
2023/04/21 01:06:28;;;;;;;18.02;11.35;;;2.50;68.50;;;;;;5015793;28;20029;-70
2023/04/21 01:08:54;;;;;;;17.73;11.98;;;2.50;69.70;;;;;;5016440;28;20156;-70
2023/04/21 01:11:20;;;;;;;16.13;10.70;;;2.30;71.40;;;;;;5021893;28;20034;-70
2023/04/21 01:13:46;;;;;;;15.23;9.93;;;2.10;72.30;;;;;;5011976;28;20029;-70
2023/04/21 01:16:16;;;;;;;13.50;9.23;;;1.90;71.90;;;;;;5016989;28;20037;-70
2023/04/21 01:18:43;;;;;;;12.90;8.75;;;1.70;70.90;;;;;;5026702;28;20052;-70
2023/04/21 01:21:09;;;;;;;20.13;11.50;;;1.60;69.90;;;;;;5010544;28;20471;-71
2023/04/21 01:23:34;;;;;;;17.25;10.15;;;1.60;69.50;;;;;;5016461;28;20091;-70
2023/04/21 01:26:00;;;;;;;14.20;8.50;;;1.60;69.30;;;;;;5029853;28;20029;-70
2023/04/21 01:28:26;;;;;;;20.00;11.63;;;1.50;68.10;;;;;;5023435;28;20380;-71
2023/04/21 01:30:52;;;;;;;12.07;8.15;;;1.50;68.10;;;;;;5019778;28;20034;-70
2023/04/21 01:33:18;;;;;;;13.65;8.90;;;1.50;67.40;;;;;;5018991;28;20025;-71
2023/04/21 01:35:45;;;;;;;14.80;9.45;;;1.50;66.30;;;;;;5025638;28;20037;-70
2023/04/21 01:38:10;;;;;;;13.48;8.85;;;1.60;66.10;;;;;;5018942;28;20048;-70
2023/04/21 01:40:40;;;;;;;13.55;9.52;;;1.50;66.60;;;;;;5029091;28;20018;-71
2023/04/21 01:43:09;;;;;;;14.70;8.75;;;1.40;67.80;;;;;;5029427;28;20057;-70
2023/04/21 01:45:37;;;;;;;14.77;9.77;;;1.30;66.70;;;;;;5020789;28;20022;-70
2023/04/21 01:48:03;;;;;;;23.48;13.73;;;1.30;65.40;;;;;;5022187;28;20362;-70
2023/04/21 01:50:28;;;;;;;21.83;13.15;;;1.40;65.20;;;;;;5021905;28;20034;-70
2023/04/21 01:52:54;;;;;;;18.20;10.48;;;1.50;64.30;;;;;;5025339;28;20053;-70
2023/04/21 01:55:20;;;;;;;21.35;11.80;;;1.50;65.30;;;;;;5008725;28;20035;-70
2023/04/21 01:57:45;;;;;;;21.17;12.27;;;1.40;66.20;;;;;;5024948;28;20619;-70
2023/04/21 02:00:11;;;;;;;19.15;11.15;;;1.30;66.70;;;;;;5020495;28;20038;-70
2023/04/21 02:02:37;;;;;;;18.20;11.23;;;1.10;66.50;;;;;;5012525;28;20033;-69
2023/04/21 02:05:03;;;;;;;18.23;13.00;;;1.10;65.40;;;;;;5013329;28;20026;-71
2023/04/21 02:07:28;;;;;;;23.15;14.27;;;1.20;64.50;;;;;;5022386;28;20112;-72
2023/04/21 02:09:54;;;;;;;20.60;13.93;;;1.10;64.70;;;;;;5008177;28;20034;-71
2023/04/21 02:12:19;;;;;;;21.25;14.48;;;1.20;64.20;;;;;;5019613;28;20030;-71
2023/04/21 02:14:47;;;;;;;21.10;13.38;;;1.20;64.30;;;;;;5019251;28;20114;-71
2023/04/21 02:17:13;;;;;;;22.15;14.43;;;1.20;63.70;;;;;;5013028;28;20033;-71
2023/04/21 02:19:38;;;;;;;19.05;12.27;;;1.30;63.70;;;;;;5020416;28;20030;-70
2023/04/21 02:22:06;;;;;;;23.80;14.88;;;1.50;62.70;;;;;;5021631;28;20080;-70
2023/04/21 02:24:31;;;;;;;22.20;12.43;;;1.60;63.40;;;;;;5016677;28;20026;-71
2023/04/21 02:26:57;;;;;;;21.33;12.40;;;1.50;64.80;;;;;;5018379;28;20307;-70
2023/04/21 02:29:23;;;;;;;17.83;11.52;;;1.40;64.30;;;;;;5019771;28;20040;-70
2023/04/21 02:31:48;;;;;;;23.75;13.18;;;1.30;64.60;;;;;;5022529;28;20025;-70
2023/04/21 02:34:14;;;;;;;16.50;10.18;;;1.30;64.00;;;;;;5032444;28;20025;-70
2023/04/21 02:36:39;;;;;;;16.58;10.35;;;1.20;64.30;;;;;;5021121;28;20034;-70
2023/04/21 02:39:05;;;;;;;14.10;9.73;;;1.20;63.70;;;;;;5006509;28;20482;-70
2023/04/21 02:41:31;;;;;;;19.45;10.80;;;1.20;63.00;;;;;;5019642;28;20030;-70
2023/04/21 02:43:56;;;;;;;12.52;8.98;;;1.30;63.20;;;;;;5017701;28;20030;-70
2023/04/21 02:46:22;;;;;;;13.80;8.40;;;1.30;63.10;;;;;;5011694;28;20031;-71
2023/04/21 02:48:47;;;;;;;13.70;8.63;;;1.40;63.00;;;;;;5007937;28;20040;-70
2023/04/21 02:51:14;;;;;;;17.08;10.07;;;1.30;63.40;;;;;;5017076;28;20104;-70
2023/04/21 02:53:40;;;;;;;13.68;7.93;;;1.30;63.20;;;;;;5018446;28;20121;-70
2023/04/21 02:56:09;;;;;;;10.65;7.53;;;1.40;62.30;;;;;;5018003;28;20026;-71
2023/04/21 02:58:35;;;;;;;10.38;6.70;;;1.50;62.60;;;;;;5017020;28;20053;-70
2023/04/21 03:01:02;;;;;;;11.85;7.57;;;1.60;62.60;;;;;;5016936;28;20029;-70
2023/04/21 03:03:28;;;;;;;11.68;6.97;;;1.60;62.70;;;;;;5016291;28;20504;-70
2023/04/21 03:06:02;;;;;;;14.38;8.90;;;1.50;62.90;;;;;;5018167;28;20026;-70
2023/04/21 03:08:28;;;;;;;17.33;10.05;;;1.50;62.90;;;;;;5017938;28;20296;-70
2023/04/21 03:10:53;;;;;;;13.60;8.27;;;1.50;62.60;;;;;;5016969;28;20064;-70
2023/04/21 03:13:19;;;;;;;11.05;7.32;;;1.60;62.20;;;;;;5033167;28;20029;-71
2023/04/21 03:15:45;;;;;;;13.57;7.97;;;1.50;62.80;;;;;;5023046;28;20042;-70
2023/04/21 03:18:11;;;;;;;14.30;7.82;;;1.50;62.70;;;;;;5030129;28;20092;-71
2023/04/21 03:20:38;;;;;;;12.20;7.13;;;1.50;62.50;;;;;;5013907;28;20026;-70
2023/04/21 03:23:06;;;;;;;18.95;9.52;;;1.50;62.40;;;;;;5020740;28;20034;-70
2023/04/21 03:25:31;;;;;;;12.10;7.20;;;1.50;62.60;;;;;;5014603;28;20025;-70
2023/04/21 03:27:57;;;;;;;11.15;7.00;;;1.50;62.60;;;;;;5014163;28;20022;-71
2023/04/21 03:30:25;;;;;;;11.10;5.85;;;1.50;62.70;;;;;;5017925;28;20438;-71
2023/04/21 03:32:57;;;;;;;9.95;6.20;;;1.40;63.00;;;;;;5025696;28;20018;-69
2023/04/21 03:35:23;;;;;;;11.13;6.63;;;1.40;62.40;;;;;;5016788;28;20021;-70
2023/04/21 03:37:49;;;;;;;11.13;6.65;;;1.50;62.20;;;;;;5012844;28;20029;-70
2023/04/21 03:40:15;;;;;;;11.73;6.80;;;1.60;61.90;;;;;;5019045;28;20018;-70
2023/04/21 03:42:40;;;;;;;13.90;6.93;;;1.70;62.00;;;;;;5019564;28;20028;-69
2023/04/21 03:45:09;;;;;;;12.18;7.45;;;1.70;62.10;;;;;;5016653;28;20026;-70
2023/04/21 03:47:35;;;;;;;13.20;7.80;;;1.80;62.00;;;;;;5019960;28;20022;-69
2023/04/21 03:50:05;;;;;;;10.15;6.35;;;1.90;62.10;;;;;;5015337;28;20022;-70
2023/04/21 03:52:31;;;;;;;16.25;8.52;;;1.90;62.10;;;;;;5030548;28;20025;-70
2023/04/21 03:54:57;;;;;;;11.93;6.70;;;1.90;62.30;;;;;;5016407;28;20030;-69
2023/04/21 03:57:23;;;;;;;13.48;6.70;;;1.90;62.20;;;;;;5016617;28;20375;-70
2023/04/21 03:59:48;;;;;;;16.92;8.60;;;1.90;62.10;;;;;;5018565;28;20103;-70
2023/04/21 04:02:14;;;;;;;10.80;6.32;;;1.80;62.60;;;;;;5027092;28;20437;-70
2023/04/21 04:04:39;;;;;;;12.40;6.50;;;1.70;62.30;;;;;;5041435;28;20030;-71
2023/04/21 04:07:07;;;;;;;11.40;6.63;;;1.70;62.10;;;;;;5027166;28;20057;-71
2023/04/21 04:09:33;;;;;;;9.80;6.20;;;1.70;62.50;;;;;;5030753;28;20026;-71
2023/04/21 04:11:58;;;;;;;11.32;6.78;;;1.70;61.90;;;;;;5019629;28;20026;-70
2023/04/21 04:14:24;;;;;;;12.23;6.32;;;1.70;62.10;;;;;;5016709;28;20057;-71
2023/04/21 04:16:53;;;;;;;13.43;6.85;;;1.90;61.70;;;;;;5015609;28;20041;-70
2023/04/21 04:19:18;;;;;;;14.32;6.88;;;1.90;62.10;;;;;;5016966;28;20033;-70
2023/04/21 04:21:44;;;;;;;11.20;5.68;;;1.90;62.00;;;;;;5023614;28;20352;-71
2023/04/21 04:24:10;;;;;;;10.13;5.95;;;1.80;62.30;;;;;;5015130;28;20029;-71
2023/04/21 04:26:37;;;;;;;8.15;5.10;;;1.70;62.40;;;;;;5015583;28;20037;-70
2023/04/21 04:29:04;;;;;;;10.43;5.90;;;1.80;62.00;;;;;;5001442;28;20046;-71
2023/04/21 04:31:31;;;;;;;8.40;5.30;;;1.70;62.20;;;;;;5030069;28;20324;-70
2023/04/21 04:33:56;;;;;;;11.55;6.88;;;1.70;62.40;;;;;;5016667;28;20026;-71
2023/04/21 04:36:23;;;;;;;12.90;8.65;;;1.60;62.60;;;;;;5027920;28;20315;-71
2023/04/21 04:38:49;;;;;;;12.82;7.97;;;1.60;62.10;;;;;;5018164;28;20045;-70
2023/04/21 04:41:15;;;;;;;11.05;7.25;;;1.70;61.70;;;;;;5034001;28;20021;-70
2023/04/21 04:43:41;;;;;;;13.02;7.95;;;1.80;61.80;;;;;;5016055;28;20010;-70
2023/04/21 04:46:08;;;;;;;13.32;7.63;;;1.80;62.10;;;;;;4996884;28;20312;-71
2023/04/21 04:48:34;;;;;;;9.93;7.47;;;1.70;62.40;;;;;;5012568;28;20161;-71
2023/04/21 04:50:59;;;;;;;16.17;9.38;;;1.70;62.50;;;;;;5016433;28;20137;-69
2023/04/21 04:53:30;;;;;;;18.58;9.95;;;1.70;62.40;;;;;;5015500;28;20113;-69
2023/04/21 04:55:57;;;;;;;21.85;12.10;;;1.70;62.00;;;;;;5015329;28;20057;-69
2023/04/21 04:58:23;;;;;;;16.08;9.48;;;1.80;61.60;;;;;;5014292;28;20038;-69
2023/04/21 05:00:48;;;;;;;17.27;10.15;;;1.90;61.70;;;;;;5014003;28;20055;-71
2023/04/21 05:03:14;;;;;;;16.55;10.85;;;1.90;61.90;;;;;;5015240;28;20091;-72
2023/04/21 05:05:40;;;;;;;16.75;10.77;;;2.00;61.60;;;;;;5016687;28;20022;-70
2023/04/21 05:08:05;;;;;;;18.55;11.57;;;2.10;61.60;;;;;;5008934;28;20036;-71
2023/04/21 05:10:31;;;;;;;17.40;11.25;;;2.20;61.60;;;;;;5027099;28;20057;-70
2023/04/21 05:12:56;;;;;;;16.63;11.18;;;2.30;61.40;;;;;;5017578;28;20095;-70
2023/04/21 05:15:22;;;;;;;17.05;11.63;;;2.40;61.60;;;;;;5018341;28;20026;-70
2023/04/21 05:17:48;;;;;;;18.15;12.07;;;2.40;61.70;;;;;;5011399;28;20060;-70
2023/04/21 05:20:14;;;;;;;18.10;12.07;;;2.50;61.60;;;;;;5014501;28;20030;-70
2023/04/21 05:22:40;;;;;;;23.88;14.13;;;2.60;61.40;;;;;;5009969;28;20730;-70
2023/04/21 05:25:09;;;;;;;30.27;17.00;;;2.60;61.80;;;;;;5002723;28;20022;-70
2023/04/21 05:27:34;;;;;;;21.40;12.95;;;2.50;62.20;;;;;;4997198;28;20033;-70
2023/04/21 05:30:00;;;;;;;25.92;13.43;;;2.50;62.00;;;;;;4993847;28;20320;-70
2023/04/21 05:32:25;;;;;;;23.58;15.10;;;2.60;61.70;;;;;;4996756;28;20120;-71
2023/04/21 05:34:51;;;;;;;23.23;14.63;;;2.60;61.80;;;;;;4996456;28;20023;-70
2023/04/21 05:37:17;;;;;;;24.80;15.38;;;2.60;61.70;;;;;;4997229;28;20157;-70
2023/04/21 05:39:42;;;;;;;25.25;15.18;;;2.60;62.20;;;;;;5012001;28;20029;-70
2023/04/21 05:42:14;;;;;;;30.52;18.42;;;2.60;62.50;;;;;;5011439;28;20033;-70
2023/04/21 05:44:39;;;;;;;28.77;18.38;;;2.40;64.60;;;;;;4995779;28;20038;-70
2023/04/21 05:47:06;;;;;;;18.27;13.27;;;2.20;64.60;;;;;;5008412;28;20443;-70
2023/04/21 05:49:31;;;;;;;23.92;15.05;;;2.20;63.00;;;;;;5015717;28;20026;-70
2023/04/21 05:51:57;;;;;;;26.40;17.40;;;2.30;62.80;;;;;;5005457;28;20037;-70
2023/04/21 05:54:22;;;;;;;33.72;21.98;;;2.40;63.20;;;;;;5010072;28;20041;-70
2023/04/21 05:56:48;;;;;;;28.67;17.25;;;2.50;62.10;;;;;;5002431;28;20045;-71
2023/04/21 05:59:14;;;;;;;17.08;11.88;;;2.50;63.30;;;;;;5014263;28;20088;-70
2023/04/21 06:01:40;;;;;;;24.75;17.27;;;2.60;62.90;;;;;;5012640;28;20026;-71
2023/04/21 06:04:06;;;;;;;37.33;21.38;;;2.60;63.40;;;;;;5007007;28;20362;-70
2023/04/21 06:06:31;;;;;;;25.15;16.55;;;2.50;64.20;;;;;;4996813;28;20090;-70
2023/04/21 06:08:57;;;;;;;27.40;17.95;;;2.50;63.50;;;;;;5013268;28;20034;-70
2023/04/21 06:11:23;;;;;;;23.92;16.40;;;2.60;64.00;;;;;;5015492;28;20034;-69
2023/04/21 06:13:49;;;;;;;34.55;17.40;;;2.60;64.40;;;;;;5009909;28;20073;-70
2023/04/21 06:16:14;;;;;;;23.63;16.73;;;2.60;64.00;;;;;;4994738;28;20023;-70
2023/04/21 06:18:40;;;;;;;36.47;23.92;;;2.50;65.00;;;;;;4999736;28;20026;-70
2023/04/21 06:21:05;;;;;;;57.25;30.77;;;2.40;66.00;;;;;;5015427;28;20109;-70
2023/04/21 06:23:31;;;;;;;40.47;26.73;;;2.20;65.20;;;;;;5019838;28;20033;-71
2023/04/21 06:26:03;;;;;;;36.38;24.02;;;2.20;64.70;;;;;;5027360;28;20323;-71
2023/04/21 06:28:28;;;;;;;43.03;30.05;;;2.20;64.40;;;;;;5030536;28;20022;-70
2023/04/21 06:30:54;;;;;;;37.97;25.20;;;2.30;64.10;;;;;;5021394;28;20426;-70
2023/04/21 06:33:19;;;;;;;33.17;24.15;;;2.30;64.10;;;;;;5028634;28;20040;-69
2023/04/21 06:35:45;;;;;;;28.98;19.88;;;2.30;63.50;;;;;;5029210;28;20028;-70
2023/04/21 06:38:10;;;;;;;32.67;21.88;;;2.30;65.40;;;;;;5017442;28;20061;-70
2023/04/21 06:40:36;;;;;;;43.80;23.98;;;2.30;63.40;;;;;;5024611;28;20027;-70
2023/04/21 06:43:01;;;;;;;27.00;18.88;;;2.60;61.80;;;;;;5038374;28;20032;-70
2023/04/21 06:45:27;;;;;;;31.05;21.35;;;2.90;61.50;;;;;;5004535;28;20033;-70
2023/04/21 06:47:53;;;;;;;59.85;21.73;;;3.20;61.80;;;;;;4999032;28;20468;-70
2023/04/21 06:50:21;;;;;;;22.95;15.48;;;3.40;62.80;;;;;;5011730;28;20036;-70
2023/04/21 06:52:47;;;;;;;23.50;14.77;;;3.70;61.90;;;;;;5017863;28;20022;-70
2023/04/21 06:55:12;;;;;;;26.17;16.77;;;3.90;63.10;;;;;;5017378;28;20097;-70
2023/04/21 06:57:38;;;;;;;33.05;18.58;;;3.90;65.60;;;;;;5018173;28;20045;-70
2023/04/21 07:00:05;;;;;;;20.92;15.00;;;4.10;67.40;;;;;;5009587;28;20043;-70
2023/04/21 07:02:30;;;;;;;33.15;19.48;;;4.20;67.80;;;;;;4998657;28;20019;-70
2023/04/21 07:04:56;;;;;;;25.48;18.77;;;4.30;72.40;;;;;;5032420;28;20034;-70
2023/04/21 07:07:21;;;;;;;23.38;16.35;;;4.30;76.00;;;;;;5013508;28;20034;-70
2023/04/21 07:09:47;;;;;;;21.30;15.50;;;4.20;81.80;;;;;;5015775;28;20030;-70
2023/04/21 07:12:13;;;;;;;21.00;14.02;;;4.30;81.70;;;;;;5018110;28;20053;-70
2023/04/21 07:14:38;;;;;;;25.73;19.50;;;4.40;82.60;;;;;;5010741;28;20109;-70
2023/04/21 07:17:04;;;;;;;25.27;18.70;;;4.60;83.30;;;;;;4997255;28;20027;-70
2023/04/21 07:19:29;;;;;;;28.98;19.75;;;4.80;88.20;;;;;;4998290;28;20029;-70
2023/04/21 07:21:55;;;;;;;23.13;17.60;;;4.90;89.20;;;;;;4998398;28;20078;-70
2023/04/21 07:24:20;;;;;;;21.50;15.70;;;5.10;89.50;;;;;;5002334;28;20109;-70
2023/04/21 07:26:46;;;;;;;18.50;14.25;;;5.40;92.50;;;;;;4998267;28;20022;-70
2023/04/21 07:29:12;;;;;;;17.92;13.57;;;5.60;95.60;;;;;;4998543;28;20402;-70
2023/04/21 07:31:37;;;;;;;19.08;12.85;;;5.60;96.30;;;;;;4996842;28;20030;-70
2023/04/21 07:34:03;;;;;;;17.50;12.38;;;5.50;95.20;;;;;;4997349;28;20416;-70
2023/04/21 07:36:29;;;;;;;16.98;12.35;;;5.70;97.60;;;;;;5016831;28;20034;-70
2023/04/21 07:38:55;;;;;;;19.08;13.88;;;5.90;97.70;;;;;;5012609;28;20040;-70
2023/04/21 07:41:20;;;;;;;20.88;15.20;;;5.80;98.00;;;;;;5016730;28;20025;-70
2023/04/21 07:43:46;;;;;;;18.13;13.88;;;5.90;96.80;;;;;;5002405;28;20030;-70
2023/04/21 07:46:12;;;;;;;18.85;13.88;;;6.10;98.00;;;;;;4996701;28;20018;-69
2023/04/21 07:48:38;;;;;;;19.42;13.23;;;6.20;97.60;;;;;;5009417;28;20045;-69
2023/04/21 07:51:04;;;;;;;16.02;11.00;;;6.50;97.90;;;;;;5015225;28;20061;-69
2023/04/21 07:53:30;;;;;;;13.25;9.48;;;7.30;98.00;;;;;;5012921;28;20144;-69
2023/04/21 07:55:55;;;;;;;10.82;7.90;;;8.30;98.00;;;;;;5016405;28;20061;-71
2023/04/21 07:58:21;;;;;;;15.13;7.75;;;9.50;98.00;;;;;;4997683;28;20046;-71
2023/04/21 08:00:50;;;;;;;11.10;7.93;;;10.40;96.10;;;;;;4996498;28;20097;-71
2023/04/21 08:03:16;;;;;;;12.30;7.80;;;11.30;92.90;;;;;;5014993;28;20163;-71
2023/04/21 08:05:41;;;;;;;11.38;7.85;;;12.00;90.40;;;;;;5016303;28;20399;-71
2023/04/21 08:08:07;;;;;;;10.05;7.38;;;12.60;89.40;;;;;;4999071;28;20050;-71
2023/04/21 08:10:33;;;;;;;12.80;8.60;;;12.80;88.60;;;;;;5014916;28;20026;-71
2023/04/21 08:12:58;;;;;;;11.02;7.30;;;13.10;86.80;;;;;;4997605;28;20035;-70
2023/04/21 08:15:24;;;;;;;9.45;6.63;;;13.30;85.70;;;;;;4996778;28;20446;-71
2023/04/21 08:17:50;;;;;;;9.27;6.88;;;13.20;85.30;;;;;;4997275;28;20532;-71
2023/04/21 08:20:16;;;;;;;9.48;6.70;;;12.60;86.60;;;;;;5011763;28;20285;-70
2023/04/21 08:22:41;;;;;;;12.32;8.13;;;11.70;89.40;;;;;;5016740;28;20032;-70
2023/04/21 08:25:07;;;;;;;11.93;7.63;;;11.70;90.00;;;;;;5003403;28;20319;-71
2023/04/21 08:27:33;;;;;;;10.60;7.00;;;11.50;90.60;;;;;;4997077;28;20027;-71
2023/04/21 08:29:59;;;;;;;10.40;7.50;;;12.20;90.60;;;;;;5007011;28;20422;-70
2023/04/21 08:32:25;;;;;;;9.77;6.97;;;12.60;89.30;;;;;;5014692;28;20083;-70
2023/04/21 08:34:53;;;;;;;11.25;7.75;;;12.50;88.50;;;;;;5007476;28;20097;-70
2023/04/21 08:37:20;;;;;;;9.65;6.85;;;12.20;90.50;;;;;;5016530;28;20037;-70
2023/04/21 08:39:46;;;;;;;9.20;5.68;;;12.30;90.60;;;;;;5009149;28;20030;-70
2023/04/21 08:42:13;;;;;;;9.18;6.00;;;12.40;90.60;;;;;;4995914;28;20030;-70
2023/04/21 08:44:40;;;;;;;8.20;5.30;;;11.90;92.60;;;;;;4996131;28;20040;-70
2023/04/21 08:47:10;;;;;;;13.65;8.85;;;11.80;93.00;;;;;;5016758;28;20297;-70
2023/04/21 08:49:37;;;;;;;11.23;8.57;;;11.70;92.80;;;;;;5014488;28;20053;-70
2023/04/21 08:52:03;;;;;;;11.30;7.20;;;11.10;92.80;;;;;;4996634;28;20030;-70
2023/04/21 08:54:29;;;;;;;12.77;8.43;;;11.60;93.90;;;;;;5000621;28;20304;-70
2023/04/21 08:56:55;;;;;;;10.55;7.63;;;12.90;90.60;;;;;;5015157;28;20037;-71
2023/04/21 08:59:21;;;;;;;11.23;8.23;;;13.30;88.30;;;;;;5015214;28;20034;-70
2023/04/21 09:02:05;;;;;;;11.57;8.88;;;13.90;87.70;;;;;;5015072;28;20093;-71
2023/04/21 09:04:32;;;;;;;11.43;8.57;;;13.60;86.20;;;;;;5016164;28;20018;-71
2023/04/21 09:06:57;;;;;;;11.13;8.30;;;14.00;86.60;;;;;;5016227;28;20062;-70
2023/04/21 09:09:23;;;;;;;14.57;10.25;;;14.20;86.10;;;;;;5008117;28;20061;-71
2023/04/21 09:11:58;;;;;;;11.38;8.75;;;14.80;84.60;;;;;;4996373;28;20034;-70
2023/04/21 09:14:34;;;;;;;11.15;8.45;;;14.80;85.40;;;;;;5008346;28;20057;-70
2023/04/21 09:17:02;;;;;;;12.23;8.40;;;15.00;84.20;;;;;;5014912;28;20109;-70
2023/04/21 09:19:33;;;;;;;10.45;7.68;;;14.10;85.50;;;;;;5006358;28;20151;-70
2023/04/21 09:21:59;;;;;;;11.00;8.48;;;14.40;88.30;;;;;;4996588;28;20025;-70
2023/04/21 09:24:26;;;;;;;13.10;8.95;;;15.30;84.70;;;;;;5012725;28;20041;-70
2023/04/21 09:26:52;;;;;;;9.90;7.53;;;15.60;81.70;;;;;;5015220;28;20022;-70
2023/04/21 09:29:25;;;;;;;11.40;8.00;;;15.60;83.70;;;;;;5014882;28;20129;-70
2023/04/21 09:31:51;;;;;;;10.93;7.38;;;16.10;81.90;;;;;;5001505;28;20503;-70
2023/04/21 09:34:23;;;;;;;9.32;5.22;;;17.00;80.90;;;;;;5006073;28;20081;-71
2023/04/21 09:37:01;;;;;;;7.35;5.38;;;17.30;79.20;;;;;;5012381;28;20026;-70
2023/04/21 09:39:32;;;;;;;7.70;5.30;;;18.00;80.00;;;;;;5008152;28;20292;-71
2023/04/21 09:41:58;;;;;;;8.35;5.85;;;18.50;77.40;;;;;;5010678;28;20029;-70
2023/04/21 09:44:24;;;;;;;12.25;7.53;;;18.40;77.20;;;;;;5007466;28;20083;-70
2023/04/21 09:46:56;;;;;;;9.25;6.70;;;18.50;76.30;;;;;;4997512;28;20037;-71
2023/04/21 09:49:22;;;;;;;7.45;5.20;;;18.70;75.50;;;;;;5004538;28;20101;-71
2023/04/21 09:51:48;;;;;;;9.57;5.70;;;18.00;77.70;;;;;;5003126;28;20066;-70
2023/04/21 09:54:19;;;;;;;11.18;7.32;;;17.40;79.40;;;;;;5004915;28;20058;-70
2023/04/21 09:56:51;;;;;;;10.90;7.10;;;17.20;79.90;;;;;;4999014;28;20518;-70
2023/04/21 09:59:21;;;;;;;11.60;8.05;;;17.10;80.60;;;;;;5010561;28;20041;-70
2023/04/21 10:01:49;;;;;;;10.90;8.15;;;17.20;80.40;;;;;;5026783;28;20014;-70
2023/04/21 10:04:17;;;;;;;10.75;7.50;;;17.00;80.20;;;;;;5019347;28;20022;-70
2023/04/21 10:06:43;;;;;;;10.02;7.57;;;16.40;82.00;;;;;;5017215;28;20022;-70
2023/04/21 10:09:12;;;;;;;12.38;7.22;;;15.60;84.30;;;;;;5017223;28;20045;-70
2023/04/21 10:11:38;;;;;;;9.88;6.57;;;15.30;84.80;;;;;;5019334;28;20030;-70
2023/04/21 10:14:03;;;;;;;11.05;7.30;;;15.10;86.70;;;;;;5018498;28;20113;-70
2023/04/21 10:16:29;;;;;;;15.13;7.32;;;15.20;86.10;;;;;;5018062;28;20113;-70
2023/04/21 10:18:55;;;;;;;10.85;6.78;;;16.00;84.80;;;;;;5008632;28;20112;-70
2023/04/21 10:21:21;;;;;;;9.75;6.68;;;16.10;84.20;;;;;;5000284;28;20034;-70
2023/04/21 10:23:52;;;;;;;8.60;5.97;;;16.50;84.20;;;;;;5015483;28;20040;-70
2023/04/21 10:26:34;;;;;;;9.13;6.53;;;17.50;80.40;;;;;;5000501;28;20105;-70
2023/04/21 10:29:02;;;;;;;12.93;8.65;;;18.40;78.30;;;;;;5017504;28;20034;-70
2023/04/21 10:31:43;;;;;;;10.77;7.75;;;19.00;80.20;;;;;;5007811;28;20022;-70
2023/04/21 10:34:11;;;;;;;10.63;7.85;;;19.70;76.00;;;;;;4999072;28;20038;-70
2023/04/21 10:37:06;;;;;;;11.15;8.50;;;19.90;75.60;;;;;;4999908;28;20030;-70
2023/04/21 10:39:41;;;;;;;13.40;8.48;;;20.00;74.70;;;;;;4999765;28;20092;-71
2023/04/21 10:42:12;;;;;;;10.68;8.27;;;20.40;73.10;;;;;;5018587;28;20353;-71
2023/04/21 10:44:51;;;;;;;12.40;9.05;;;20.30;75.30;;;;;;5018566;28;20049;-71
2023/04/21 10:47:32;;;;;;;9.50;7.05;;;20.10;73.80;;;;;;5004643;28;20036;-71
2023/04/21 10:49:59;;;;;;;10.27;6.45;;;20.20;75.20;;;;;;5017609;28;20069;-70
2023/04/21 10:52:34;;;;;;;9.25;6.55;;;20.60;73.70;;;;;;5009845;28;20037;-71
2023/04/21 10:55:06;;;;;;;8.73;5.88;;;20.60;71.30;;;;;;4998959;28;20045;-70
2023/04/21 10:57:33;;;;;;;9.65;6.65;;;20.80;71.50;;;;;;5012649;28;20050;-70
2023/04/21 10:59:59;;;;;;;8.05;4.97;;;20.40;70.70;;;;;;5006275;28;20047;-71
2023/04/21 11:02:25;;;;;;;8.80;5.95;;;20.50;73.30;;;;;;4998868;28;20029;-70
2023/04/21 11:04:52;;;;;;;9.32;5.53;;;21.00;72.50;;;;;;4998713;28;20030;-70
2023/04/21 11:07:22;;;;;;;7.40;5.13;;;20.90;71.40;;;;;;5008545;28;20311;-70
2023/04/21 11:09:56;;;;;;;8.18;5.78;;;20.10;72.50;;;;;;5010065;28;20042;-70
2023/04/21 11:12:27;;;;;;;10.15;5.90;;;20.20;73.90;;;;;;4998534;28;20027;-70
2023/04/21 11:14:52;;;;;;;8.43;5.50;;;20.70;74.30;;;;;;5004751;28;20080;-70
2023/04/21 11:17:19;;;;;;;8.75;5.25;;;20.70;69.60;;;;;;5017002;28;20034;-70
2023/04/21 11:19:53;;;;;;;8.50;5.75;;;20.80;71.30;;;;;;5000933;28;20065;-70
2023/04/21 11:22:20;;;;;;;8.20;5.32;;;20.90;70.70;;;;;;5010206;28;20030;-70
2023/04/21 11:24:47;;;;;;;7.40;5.32;;;21.10;71.00;;;;;;5003194;28;20034;-70
2023/04/21 11:27:14;;;;;;;8.35;4.90;;;21.30;70.10;;;;;;4998260;28;20102;-70
2023/04/21 11:29:40;;;;;;;7.32;5.05;;;21.70;71.50;;;;;;5013306;28;20045;-70
2023/04/21 11:32:07;;;;;;;8.38;5.60;;;22.00;71.00;;;;;;5016626;28;20033;-71
2023/04/21 11:34:37;;;;;;;8.05;4.90;;;21.90;72.00;;;;;;5016893;28;20049;-70
2023/04/21 11:37:03;;;;;;;7.65;4.63;;;22.00;68.70;;;;;;5017790;28;20068;-70
2023/04/21 11:39:28;;;;;;;6.63;4.15;;;21.80;68.40;;;;;;5003355;28;20432;-71
2023/04/21 11:41:54;;;;;;;7.40;4.00;;;21.70;70.50;;;;;;4998197;28;20085;-70
2023/04/21 11:44:40;;;;;;;6.53;3.38;;;22.00;69.40;;;;;;5009432;28;20025;-70
2023/04/21 11:47:13;;;;;;;6.80;3.97;;;21.20;70.00;;;;;;5016310;28;20440;-71
2023/04/21 11:49:46;;;;;;;6.30;3.78;;;21.60;69.70;;;;;;5002809;28;20038;-70
2023/04/21 11:52:34;;;;;;;6.38;3.03;;;21.80;69.90;;;;;;5007635;28;20022;-70
2023/04/21 11:55:10;;;;;;;4.45;2.40;;;21.40;70.20;;;;;;5015000;28;20026;-70
2023/04/21 11:57:39;;;;;;;4.90;2.53;;;21.30;69.80;;;;;;5016094;28;20046;-70
2023/04/21 12:00:07;;;;;;;7.93;2.45;;;21.40;69.20;;;;;;5016349;28;20137;-70
2023/04/21 12:02:33;;;;;;;4.43;2.30;;;21.20;69.70;;;;;;5012871;28;20021;-70
2023/04/21 12:05:02;;;;;;;5.07;2.70;;;21.50;68.60;;;;;;4997695;28;20030;-72
2023/04/21 12:07:42;;;;;;;4.43;2.30;;;21.50;67.90;;;;;;4997555;28;20084;-71
2023/04/21 12:10:13;;;;;;;4.32;2.10;;;21.50;67.60;;;;;;5000940;28;20041;-70
2023/04/21 12:12:41;;;;;;;4.60;2.40;;;21.80;69.40;;;;;;5012942;28;20022;-70
2023/04/21 12:15:08;;;;;;;3.78;2.15;;;21.60;66.30;;;;;;4996308;28;20034;-70
2023/04/21 12:17:44;;;;;;;23.35;4.25;;;21.40;68.80;;;;;;4997361;28;20038;-70
2023/04/21 12:20:10;;;;;;;4.78;1.98;;;21.20;68.10;;;;;;4999559;28;20057;-70
2023/04/21 12:22:35;;;;;;;3.47;1.88;;;21.20;66.20;;;;;;5016710;28;20030;-70
2023/04/21 12:25:01;;;;;;;3.92;1.90;;;20.80;65.00;;;;;;5014986;28;20133;-70
2023/04/21 12:27:27;;;;;;;3.35;1.70;;;20.80;68.60;;;;;;5016023;28;20033;-70
2023/04/21 12:29:56;;;;;;;3.22;1.70;;;20.80;64.50;;;;;;5014746;28;20439;-71
2023/04/21 12:32:23;;;;;;;3.67;1.83;;;20.40;69.60;;;;;;4997188;28;20034;-71
2023/04/21 12:34:51;;;;;;;3.67;1.73;;;20.60;68.50;;;;;;4997069;28;20157;-70
2023/04/21 12:37:18;;;;;;;3.33;1.60;;;20.40;65.40;;;;;;5013858;28;20066;-71
2023/04/21 12:39:43;;;;;;;3.30;1.70;;;20.70;67.70;;;;;;5015603;28;20037;-70